Time;durP1;ratioP1;P1;durP2;ratioP2;P2;SDS_P1;SDS_P2;PMS_P1;PMS_P2;Temp;Humidity;BMP_temperature;BMP_pressure;BME280_temperature;BME280_humidity;BME280_pressure;Samples;Min_cycle;Max_cycle;Signal;HPM_P1;HPM_P2
2022/11/17 00:00:37;;;;;;;6.47;3.97;;;21.20;52.80;;;;;;5014587;28;20447;-63
2022/11/17 00:03:04;;;;;;;4.38;3.47;;;21.10;52.50;;;;;;5014344;28;20080;-62
2022/11/17 00:05:33;;;;;;;5.35;4.10;;;21.10;52.50;;;;;;5010280;28;20054;-62
2022/11/17 00:08:01;;;;;;;5.15;3.70;;;21.10;52.50;;;;;;5010715;28;20057;-63
2022/11/17 00:10:28;;;;;;;4.57;4.07;;;21.10;52.50;;;;;;5010613;28;20488;-63
2022/11/17 00:15:43;;;;;;;6.28;4.20;;;21.10;52.50;;;;;;5010830;28;20057;-63
2022/11/17 00:23:47;;;;;;;4.15;3.42;;;21.10;52.50;;;;;;5009965;28;20053;-62
2022/11/17 00:26:22;;;;;;;4.40;3.78;;;21.10;52.50;;;;;;5010742;28;20377;-63
2022/11/17 00:28:54;;;;;;;5.47;4.15;;;21.10;52.50;;;;;;5010146;28;20378;-62
2022/11/17 00:34:14;;;;;;;4.13;3.72;;;21.10;52.50;;;;;;5010801;28;20121;-63
2022/11/17 00:36:43;;;;;;;4.68;3.63;;;21.10;52.50;;;;;;5010778;28;20378;-63
2022/11/17 00:39:12;;;;;;;5.22;3.72;;;21.10;52.50;;;;;;5010161;28;20046;-62
2022/11/17 00:41:40;;;;;;;4.28;3.78;;;21.10;52.50;;;;;;5010112;28;20222;-63
2022/11/17 00:44:07;;;;;;;5.05;4.28;;;21.10;52.50;;;;;;5010927;28;20077;-62
2022/11/17 00:46:36;;;;;;;5.68;4.80;;;21.10;52.50;;;;;;5010303;28;20042;-63
2022/11/17 00:49:05;;;;;;;4.75;3.67;;;21.10;52.50;;;;;;5010538;28;20057;-62
2022/11/17 00:51:33;;;;;;;4.50;3.42;;;21.10;52.50;;;;;;5010421;28;20654;-63
2022/11/17 00:54:00;;;;;;;4.18;3.53;;;21.10;52.40;;;;;;5009822;28;20343;-62
2022/11/17 00:56:28;;;;;;;5.15;3.70;;;21.10;52.40;;;;;;5009668;28;20045;-63
2022/11/17 00:58:55;;;;;;;4.80;3.60;;;21.10;52.40;;;;;;5009933;28;20049;-63
2022/11/17 01:01:23;;;;;;;4.50;3.80;;;21.10;52.40;;;;;;4993047;28;20046;-62
2022/11/17 01:04:01;;;;;;;4.78;3.63;;;21.10;52.30;;;;;;5005345;28;20254;-62
2022/11/17 01:06:35;;;;;;;4.03;3.60;;;21.10;52.30;;;;;;5010029;28;20053;-62
2022/11/17 01:09:06;;;;;;;4.20;3.60;;;21.10;52.30;;;;;;5009976;28;20049;-63
2022/11/17 01:11:34;;;;;;;4.47;3.78;;;21.10;52.30;;;;;;5009566;28;20615;-63
2022/11/17 01:14:02;;;;;;;4.65;4.07;;;21.10;52.20;;;;;;5010299;28;20049;-62
2022/11/17 01:16:30;;;;;;;4.68;3.50;;;21.10;52.20;;;;;;5009342;28;20389;-62
2022/11/17 01:18:59;;;;;;;4.38;3.95;;;21.10;52.20;;;;;;5009872;28;20070;-62
2022/11/17 01:21:28;;;;;;;4.15;3.63;;;21.10;52.20;;;;;;5009411;28;20054;-62
2022/11/17 01:23:57;;;;;;;4.72;3.97;;;21.10;52.20;;;;;;5009720;28;20527;-62
2022/11/17 01:26:28;;;;;;;4.65;4.18;;;21.00;52.10;;;;;;5009663;28;20427;-62
2022/11/17 01:28:57;;;;;;;4.30;3.63;;;21.00;52.10;;;;;;4991439;28;20423;-62
2022/11/17 01:31:27;;;;;;;5.15;3.75;;;21.00;52.20;;;;;;5009796;28;20087;-62
2022/11/17 01:33:54;;;;;;;4.28;3.60;;;21.00;52.10;;;;;;5009412;28;20464;-62
2022/11/17 01:36:25;;;;;;;4.72;3.72;;;21.00;52.10;;;;;;5005076;28;20053;-62
2022/11/17 01:38:52;;;;;;;4.60;3.92;;;21.00;52.10;;;;;;5009674;28;20041;-63
2022/11/17 01:41:23;;;;;;;6.00;4.35;;;21.00;52.20;;;;;;5008856;28;20397;-62
2022/11/17 01:43:53;;;;;;;5.85;4.00;;;21.00;52.10;;;;;;4991453;28;20440;-62
2022/11/17 01:46:32;;;;;;;5.35;4.15;;;21.00;52.10;;;;;;4991412;28;20046;-62
2022/11/17 01:49:13;;;;;;;4.25;3.33;;;21.00;52.10;;;;;;5009585;28;20046;-62
2022/11/17 01:51:42;;;;;;;;;;;21.00;52.10;;;;;;5009801;28;20050;-63
2022/11/17 01:54:11;;;;;;;4.30;3.90;;;21.00;52.20;;;;;;5009193;28;20264;-62
2022/11/17 01:56:43;;;;;;;4.30;3.38;;;21.00;52.10;;;;;;5009181;28;20448;-63
2022/11/17 01:59:25;;;;;;;4.28;3.78;;;21.00;52.10;;;;;;5008228;28;20574;-62
2022/11/17 02:01:56;;;;;;;5.45;4.00;;;21.00;52.20;;;;;;5009190;28;20661;-63
2022/11/17 02:04:29;;;;;;;3.55;3.25;;;21.00;52.10;;;;;;5008858;28;20477;-62
2022/11/17 02:07:10;;;;;;;3.90;3.50;;;21.00;52.10;;;;;;5004534;28;20057;-62
2022/11/17 02:09:39;;;;;;;4.45;3.83;;;20.90;52.00;;;;;;5008721;28;20421;-62
2022/11/17 02:12:10;;;;;;;5.03;3.35;;;20.90;52.10;;;;;;5008793;28;20389;-62
2022/11/17 02:14:38;;;;;;;4.70;3.63;;;20.90;52.00;;;;;;5009249;28;20492;-62
2022/11/17 02:17:07;;;;;;;5.82;3.55;;;21.00;52.10;;;;;;5008185;28;20192;-63
2022/11/17 02:19:42;;;;;;;3.90;3.30;;;20.90;52.00;;;;;;5008983;28;20050;-62
2022/11/17 02:22:49;;;;;;;5.28;3.65;;;21.00;52.10;;;;;;5008493;28;20133;-62
2022/11/17 02:25:29;;;;;;;4.53;3.53;;;20.90;52.00;;;;;;5025900;28;20082;-62
2022/11/17 02:28:19;;;;;;;4.47;3.75;;;20.90;52.00;;;;;;5027815;28;20060;-63
2022/11/17 02:31:23;;;;;;;4.22;3.53;;;21.00;52.00;;;;;;5010506;28;20045;-63
2022/11/17 02:34:23;;;;;;;4.32;3.70;;;21.00;52.00;;;;;;5028009;28;20053;-63
2022/11/17 02:37:15;;;;;;;4.47;3.72;;;21.00;52.00;;;;;;5027774;28;20060;-63
2022/11/17 02:40:07;;;;;;;4.47;3.53;;;20.90;51.90;;;;;;5023728;28;20414;-62
2022/11/17 02:45:55;;;;;;;4.85;3.85;;;20.90;51.90;;;;;;5028536;28;20057;-62
2022/11/17 02:48:30;;;;;;;4.30;3.72;;;20.90;51.90;;;;;;5028114;28;20084;-62
2022/11/17 02:50:58;;;;;;;4.43;3.88;;;20.90;51.90;;;;;;5028160;28;20068;-63
2022/11/17 02:53:27;;;;;;;3.92;3.53;;;20.90;51.90;;;;;;5027501;28;20049;-62
2022/11/17 02:55:57;;;;;;;4.53;3.40;;;20.90;52.00;;;;;;5028455;28;20037;-62
2022/11/17 02:58:24;;;;;;;4.28;3.67;;;20.90;51.90;;;;;;5027706;28;20507;-62
2022/11/17 03:01:25;;;;;;;3.53;3.20;;;20.90;51.90;;;;;;5028036;28;20045;-63
2022/11/17 03:04:21;;;;;;;3.85;3.40;;;20.90;51.90;;;;;;5027984;28;20160;-63
2022/11/17 03:07:15;;;;;;;4.55;3.65;;;20.90;51.80;;;;;;5014402;28;20410;-62
2022/11/17 03:09:57;;;;;;;3.97;3.45;;;20.90;51.80;;;;;;5013372;28;20426;-63
2022/11/17 03:13:00;;;;;;;3.70;3.38;;;21.00;51.80;;;;;;5023255;28;20053;-62
2022/11/17 03:15:46;;;;;;;3.60;3.30;;;21.00;52.40;;;;;;5028181;28;20061;-62
2022/11/17 03:18:44;;;;;;;4.07;3.03;;;21.00;51.80;;;;;;5027064;28;20045;-62
2022/11/17 03:21:22;;;;;;;4.32;3.15;;;21.00;51.80;;;;;;5028008;28;20053;-62
2022/11/17 03:23:54;;;;;;;3.67;3.15;;;21.00;51.70;;;;;;5026969;28;20056;-62
2022/11/17 03:26:31;;;;;;;3.60;3.28;;;21.00;51.70;;;;;;5028124;28;20049;-62
2022/11/17 03:29:00;;;;;;;3.30;3.00;;;21.00;51.60;;;;;;5010367;28;20058;-62
2022/11/17 03:31:30;;;;;;;3.53;3.10;;;21.00;51.60;;;;;;5027678;28;20053;-63
2022/11/17 03:33:59;;;;;;;3.78;3.33;;;21.00;51.60;;;;;;5028093;28;20049;-63
2022/11/17 03:36:33;;;;;;;4.03;3.50;;;21.00;51.60;;;;;;5027779;28;20045;-62
2022/11/17 03:39:19;;;;;;;3.58;3.22;;;20.90;51.60;;;;;;5028023;28;20046;-63
2022/11/17 03:41:50;;;;;;;3.53;3.22;;;20.90;51.60;;;;;;5030526;28;20049;-62
2022/11/17 03:44:21;;;;;;;3.67;3.10;;;20.90;51.60;;;;;;5026609;28;20049;-63
2022/11/17 03:46:50;;;;;;;2.95;2.70;;;20.90;52.10;;;;;;5031519;28;20451;-62
2022/11/17 03:49:42;;;;;;;4.00;3.40;;;21.00;51.60;;;;;;5031035;28;20059;-62
2022/11/17 03:52:10;;;;;;;3.78;3.35;;;20.90;51.60;;;;;;5031138;28;20531;-63
2022/11/17 03:54:38;;;;;;;4.03;3.53;;;20.90;51.60;;;;;;5012927;28;20046;-62
2022/11/17 03:57:30;;;;;;;3.47;3.17;;;20.90;51.50;;;;;;5014003;28;20042;-63
2022/11/17 04:00:07;;;;;;;3.60;3.30;;;20.90;51.50;;;;;;5031004;28;20535;-63
2022/11/17 04:02:35;;;;;;;4.60;3.75;;;20.90;51.50;;;;;;5031403;28;20050;-62
2022/11/17 04:05:05;;;;;;;3.97;3.50;;;20.90;51.50;;;;;;5030740;28;20056;-63
2022/11/17 04:07:35;;;;;;;3.92;3.42;;;20.90;51.50;;;;;;5031277;28;20046;-63
2022/11/17 04:10:04;;;;;;;3.83;3.45;;;20.90;51.50;;;;;;5013468;28;20068;-63
2022/11/17 04:18:05;;;;;;;3.80;3.20;;;20.90;51.50;;;;;;5029997;28;20049;-62
2022/11/17 04:20:35;;;;;;;3.45;3.00;;;20.90;51.50;;;;;;5031355;28;20042;-62
2022/11/17 04:23:08;;;;;;;3.40;3.10;;;20.90;51.50;;;;;;5030218;28;20057;-63
2022/11/17 04:28:36;;;;;;;3.35;2.92;;;20.90;51.50;;;;;;5030243;28;20045;-62
2022/11/17 04:31:11;;;;;;;3.30;2.95;;;20.90;51.50;;;;;;5030074;28;20053;-63
2022/11/17 04:33:51;;;;;;;4.03;2.90;;;20.90;51.50;;;;;;4997372;28;20072;-63
2022/11/17 04:36:20;;;;;;;3.30;3.00;;;20.90;51.50;;;;;;5015622;28;20060;-62
2022/11/17 04:38:50;;;;;;;4.47;3.10;;;20.90;51.50;;;;;;5010255;28;20488;-62
2022/11/17 04:44:07;;;;;;;3.15;2.83;;;20.90;51.50;;;;;;5030079;28;20080;-64
2022/11/17 04:46:35;;;;;;;3.75;3.10;;;20.80;51.40;;;;;;5029870;28;20045;-63
2022/11/17 04:49:04;;;;;;;3.88;3.00;;;20.80;51.40;;;;;;5026403;28;20045;-62
2022/11/17 04:51:31;;;;;;;3.63;3.10;;;20.80;51.40;;;;;;5030314;28;20049;-62
2022/11/17 04:53:59;;;;;;;4.75;3.08;;;20.90;51.40;;;;;;5029496;28;20048;-63
2022/11/17 04:56:28;;;;;;;3.63;3.08;;;20.80;51.40;;;;;;5030216;28;20429;-62
2022/11/17 04:58:55;;;;;;;3.47;3.15;;;20.80;51.40;;;;;;5029558;28;20080;-63
2022/11/17 05:01:23;;;;;;;3.30;2.92;;;20.80;51.40;;;;;;5029904;28;20043;-63
2022/11/17 05:03:57;;;;;;;3.85;3.25;;;20.80;51.30;;;;;;5011899;28;20045;-63
2022/11/17 05:06:27;;;;;;;3.42;2.97;;;20.80;51.30;;;;;;5030009;28;20406;-63
2022/11/17 05:08:55;;;;;;;3.05;2.70;;;20.80;51.40;;;;;;5012056;28;20037;-62
2022/11/17 05:14:16;;;;;;;2.53;2.25;;;20.80;51.30;;;;;;5010175;28;20064;-62
2022/11/17 05:19:43;;;;;;;3.70;3.35;;;20.90;51.40;;;;;;5007562;28;20137;-62
2022/11/17 05:24:59;;;;;;;3.05;2.80;;;20.90;51.30;;;;;;5009492;28;20075;-62
2022/11/17 05:27:26;;;;;;;3.60;2.92;;;20.90;51.20;;;;;;4994742;28;20120;-63
2022/11/17 05:29:53;;;;;;;3.65;3.13;;;20.90;51.20;;;;;;5018375;28;20072;-62
2022/11/17 05:32:20;;;;;;;3.08;2.75;;;20.90;51.20;;;;;;5009395;28;20046;-63
2022/11/17 05:34:48;;;;;;;5.07;2.95;;;20.90;51.10;;;;;;5009467;28;20568;-62
2022/11/17 05:37:15;;;;;;;3.17;2.88;;;20.90;51.00;;;;;;5012239;28;20052;-63
2022/11/17 05:39:43;;;;;;;4.10;3.15;;;20.90;50.80;;;;;;5016612;28;20057;-62
2022/11/17 05:42:10;;;;;;;3.58;3.28;;;20.90;50.60;;;;;;5005296;28;20049;-62
2022/11/17 05:44:38;;;;;;;3.80;3.40;;;20.90;50.50;;;;;;5020508;28;20416;-63
2022/11/17 05:47:06;;;;;;;3.38;3.08;;;20.90;50.50;;;;;;5029231;28;20295;-63
2022/11/17 05:49:33;;;;;;;4.20;3.35;;;20.90;50.40;;;;;;5018037;28;20507;-63
2022/11/17 05:52:00;;;;;;;4.18;3.78;;;20.90;50.40;;;;;;5004612;28;20046;-63
2022/11/17 05:54:27;;;;;;;4.63;3.60;;;20.90;50.40;;;;;;5008223;28;20046;-62
2022/11/17 05:56:59;;;;;;;6.28;3.72;;;20.80;50.30;;;;;;5008905;28;20275;-63
2022/11/17 05:59:38;;;;;;;4.63;3.45;;;20.80;50.30;;;;;;5009324;28;20049;-63
2022/11/17 06:02:12;;;;;;;4.15;3.58;;;20.80;50.30;;;;;;5008535;28;20049;-63
2022/11/17 06:04:39;;;;;;;4.25;3.55;;;20.80;50.20;;;;;;5008357;28;20559;-63
2022/11/17 06:07:07;;;;;;;3.85;3.35;;;20.80;50.20;;;;;;5012815;28;20372;-63
2022/11/17 06:09:37;;;;;;;4.38;3.53;;;20.80;50.20;;;;;;5010201;28;20056;-62
2022/11/17 06:12:05;;;;;;;4.18;3.60;;;20.90;50.20;;;;;;5009260;28;20458;-63
2022/11/17 06:14:34;;;;;;;5.35;3.83;;;20.80;50.10;;;;;;5008715;28;20049;-62
2022/11/17 06:17:16;;;;;;;3.55;3.25;;;20.80;50.30;;;;;;5027066;28;20045;-62
2022/11/17 06:19:56;;;;;;;5.85;3.97;;;20.80;50.50;;;;;;5026642;28;20483;-62
2022/11/17 06:22:25;;;;;;;4.63;3.13;;;20.80;50.60;;;;;;5022046;28;20136;-63
2022/11/17 06:24:53;;;;;;;3.85;3.45;;;20.90;50.80;;;;;;5018688;28;20064;-67
2022/11/17 06:27:21;;;;;;;4.18;3.47;;;20.80;50.70;;;;;;5021448;28;20060;-66
2022/11/17 06:29:49;;;;;;;4.45;3.78;;;20.80;50.70;;;;;;5004319;28;20054;-65
2022/11/17 06:32:17;;;;;;;3.85;3.05;;;20.80;50.70;;;;;;5010666;28;20046;-67
2022/11/17 06:34:46;;;;;;;3.65;3.28;;;20.90;50.80;;;;;;5021459;28;20049;-68
2022/11/17 06:37:21;;;;;;;4.13;3.45;;;20.90;50.70;;;;;;5020158;28;20050;-68
2022/11/17 06:39:48;;;;;;;4.75;3.70;;;20.90;50.60;;;;;;5016475;28;20042;-69
2022/11/17 06:42:15;;;;;;;4.10;3.50;;;20.90;50.50;;;;;;5015543;28;20111;-64
2022/11/17 06:44:43;;;;;;;5.60;4.00;;;21.00;50.60;;;;;;5012260;28;20049;-67
2022/11/17 06:47:10;;;;;;;4.82;3.88;;;21.00;50.50;;;;;;5008512;28;20049;-67
2022/11/17 06:49:37;;;;;;;5.65;4.05;;;21.00;50.30;;;;;;5012251;28;20568;-66
2022/11/17 06:52:04;;;;;;;4.13;3.65;;;21.00;50.10;;;;;;5018546;28;20038;-67
2022/11/17 06:54:31;;;;;;;3.85;3.35;;;21.00;50.00;;;;;;5017075;28;20076;-67
2022/11/17 06:56:58;;;;;;;6.63;3.78;;;21.00;50.00;;;;;;5013460;28;20073;-67
2022/11/17 06:59:25;;;;;;;3.95;3.45;;;21.00;50.00;;;;;;5015162;28;20523;-62
2022/11/17 07:01:53;;;;;;;11.57;4.80;;;21.00;50.00;;;;;;5016247;28;20052;-66
2022/11/17 07:04:22;;;;;;;5.78;3.80;;;21.10;50.10;;;;;;5019141;28;20057;-65
2022/11/17 07:06:49;;;;;;;5.25;3.70;;;21.10;50.30;;;;;;5011313;28;20076;-62
2022/11/17 07:09:17;;;;;;;6.70;4.43;;;21.10;50.50;;;;;;5016053;28;20080;-64
2022/11/17 07:11:44;;;;;;;5.65;4.20;;;21.10;50.70;;;;;;5015251;28;20871;-65
2022/11/17 07:14:11;;;;;;;8.45;4.68;;;21.20;50.90;;;;;;5023750;28;20046;-65
2022/11/17 07:16:41;;;;;;;9.90;3.50;;;21.20;51.00;;;;;;5020209;28;20049;-67
2022/11/17 07:19:10;;;;;;;8.32;4.53;;;21.30;51.20;;;;;;5017844;28;20151;-67
2022/11/17 07:21:37;;;;;;;10.27;3.78;;;21.30;51.30;;;;;;5020106;28;20094;-64
2022/11/17 07:24:04;;;;;;;7.88;3.60;;;21.40;51.50;;;;;;5022402;28;20128;-64
2022/11/17 07:26:31;;;;;;;10.07;3.92;;;21.40;51.60;;;;;;5019904;28;20091;-68
2022/11/17 07:28:58;;;;;;;6.25;4.00;;;21.50;51.60;;;;;;5014838;28;20497;-66
2022/11/17 07:31:26;;;;;;;6.43;4.30;;;21.50;51.50;;;;;;5020617;28;20042;-63
2022/11/17 07:33:53;;;;;;;4.85;3.90;;;21.60;51.40;;;;;;5017520;28;20071;-65
2022/11/17 07:36:20;;;;;;;6.22;4.07;;;21.60;51.10;;;;;;5020954;28;20132;-65
2022/11/17 07:38:47;;;;;;;6.53;4.05;;;21.60;51.10;;;;;;5017393;28;20077;-65
2022/11/17 07:41:14;;;;;;;10.20;4.85;;;21.70;51.10;;;;;;5018023;28;20096;-68
2022/11/17 07:43:43;;;;;;;4.43;3.85;;;21.70;50.90;;;;;;5019329;28;20069;-62
2022/11/17 07:46:12;;;;;;;6.75;4.03;;;21.80;50.90;;;;;;5020157;28;20595;-65
2022/11/17 07:48:40;;;;;;;7.38;4.38;;;21.80;50.80;;;;;;5019148;28;20420;-65
2022/11/17 07:51:07;;;;;;;4.75;3.65;;;21.80;50.70;;;;;;5016944;28;20112;-64
2022/11/17 07:53:35;;;;;;;6.22;3.83;;;21.90;50.70;;;;;;5014827;28;20077;-66
2022/11/17 07:56:08;;;;;;;13.30;4.25;;;21.90;50.60;;;;;;5014434;28;20067;-62
2022/11/17 07:58:36;;;;;;;3.97;3.47;;;22.00;50.50;;;;;;5022101;28;20565;-65
2022/11/17 08:01:06;;;;;;;7.63;4.10;;;22.00;50.40;;;;;;5010119;28;20056;-62
2022/11/17 08:03:33;;;;;;;15.85;3.75;;;22.00;50.30;;;;;;5016777;28;20552;-61
2022/11/17 08:06:03;;;;;;;12.07;3.95;;;22.10;50.40;;;;;;5019677;28;20132;-63
2022/11/17 08:08:31;;;;;;;3.47;3.03;;;22.10;50.40;;;;;;5024120;28;20140;-65
2022/11/17 08:11:05;;;;;;;7.22;3.90;;;22.20;50.30;;;;;;5016213;28;20061;-64
2022/11/17 08:13:32;;;;;;;7.57;3.70;;;22.20;50.00;;;;;;5016071;28;20140;-64
2022/11/17 08:16:00;;;;;;;9.85;3.78;;;22.20;49.70;;;;;;5017042;28;20049;-64
2022/11/17 08:18:28;;;;;;;6.28;3.83;;;22.20;49.40;;;;;;5021540;28;20103;-65
2022/11/17 08:21:12;;;;;;;7.35;3.22;;;22.30;49.30;;;;;;5014590;28;20053;-65
2022/11/17 08:23:41;;;;;;;4.97;3.63;;;22.30;49.30;;;;;;5011992;28;20533;-64
2022/11/17 08:26:10;;;;;;;6.47;3.25;;;22.30;49.40;;;;;;5015426;28;20050;-64
2022/11/17 08:28:37;;;;;;;4.45;3.60;;;22.30;49.60;;;;;;5017913;28;20054;-65
2022/11/17 08:31:07;;;;;;;5.25;3.85;;;22.30;49.70;;;;;;5001813;28;20049;-64
2022/11/17 08:33:34;;;;;;;4.50;3.65;;;22.40;49.80;;;;;;5009264;28;20103;-62
2022/11/17 08:36:03;;;;;;;4.32;3.35;;;22.40;49.80;;;;;;4999290;28;20050;-62
2022/11/17 08:38:30;;;;;;;5.00;3.78;;;22.40;49.70;;;;;;5016823;28;20073;-62
2022/11/17 08:41:00;;;;;;;6.53;3.50;;;22.40;49.50;;;;;;5016482;28;20132;-61
2022/11/17 08:43:28;;;;;;;5.78;4.07;;;22.40;49.50;;;;;;5019446;28;20103;-61
2022/11/17 08:45:56;;;;;;;5.95;3.35;;;22.40;49.40;;;;;;5015649;28;20050;-61
2022/11/17 08:48:23;;;;;;;5.10;3.55;;;22.40;49.40;;;;;;5013772;28;20205;-62
2022/11/17 08:50:51;;;;;;;5.00;3.53;;;22.50;49.50;;;;;;5020203;28;20139;-65
2022/11/17 08:53:20;;;;;;;3.97;3.28;;;22.50;49.60;;;;;;5019018;28;20050;-65
2022/11/17 08:55:47;;;;;;;3.33;3.03;;;22.50;49.60;;;;;;5016290;28;21119;-63
2022/11/17 08:58:15;;;;;;;3.83;3.33;;;22.50;49.50;;;;;;5011973;28;20483;-65
2022/11/17 09:00:45;;;;;;;3.25;2.95;;;22.60;50.10;;;;;;5019830;28;20431;-65
2022/11/17 09:03:13;;;;;;;4.60;3.88;;;22.60;49.60;;;;;;5018422;28;20073;-63
2022/11/17 09:05:43;;;;;;;7.22;4.13;;;22.60;49.50;;;;;;5011607;28;20053;-64
2022/11/17 09:08:12;;;;;;;4.20;3.00;;;22.70;49.50;;;;;;5017572;28;20053;-65
2022/11/17 09:11:04;;;;;;;4.85;3.17;;;22.70;49.50;;;;;;5016726;28;20396;-63
2022/11/17 09:13:32;;;;;;;3.92;3.35;;;22.80;49.40;;;;;;4999464;28;20073;-64
2022/11/17 09:16:05;;;;;;;8.18;3.50;;;22.80;49.40;;;;;;5017328;28;20108;-61
2022/11/17 09:18:34;;;;;;;3.28;2.97;;;22.80;49.40;;;;;;5016337;28;20059;-64
2022/11/17 09:21:14;;;;;;;3.42;2.83;;;22.90;49.50;;;;;;5014164;28;20049;-65
2022/11/17 09:23:41;;;;;;;6.80;3.67;;;22.90;49.60;;;;;;4999427;28;20044;-62
2022/11/17 09:26:11;;;;;;;3.90;3.20;;;22.90;49.60;;;;;;5015620;28;20129;-63
2022/11/17 09:28:39;;;;;;;3.78;3.10;;;23.00;49.60;;;;;;5015974;28;20064;-65
2022/11/17 09:31:12;;;;;;;4.95;3.10;;;23.00;49.50;;;;;;5011621;28;20084;-66
2022/11/17 09:33:40;;;;;;;5.85;3.50;;;23.00;49.30;;;;;;5019944;28;20136;-63
2022/11/17 09:36:09;;;;;;;4.55;2.90;;;23.00;49.30;;;;;;5016961;28;20140;-65
2022/11/17 09:38:36;;;;;;;3.47;3.10;;;23.10;49.40;;;;;;5014184;28;20046;-65
2022/11/17 09:41:23;;;;;;;6.18;3.75;;;23.20;49.40;;;;;;5018417;28;20068;-63
2022/11/17 09:44:01;;;;;;;4.75;3.42;;;23.20;49.30;;;;;;5019713;28;20088;-65
2022/11/17 09:47:00;;;;;;;5.00;2.97;;;23.30;49.10;;;;;;5020976;28;20048;-63
2022/11/17 09:49:53;;;;;;;6.40;3.05;;;23.30;48.90;;;;;;5004297;28;20058;-65
2022/11/17 09:52:52;;;;;;;6.00;3.35;;;23.40;48.80;;;;;;5014543;28;20686;-65
2022/11/17 09:55:31;;;;;;;3.92;3.28;;;23.50;48.60;;;;;;5015490;28;20049;-62
2022/11/17 09:58:30;;;;;;;5.53;3.67;;;23.50;48.40;;;;;;5017423;28;20052;-63
2022/11/17 10:00:59;;;;;;;5.22;3.55;;;23.60;48.30;;;;;;5015318;28;20111;-64
2022/11/17 10:03:36;;;;;;;3.05;2.80;;;23.60;48.10;;;;;;5017117;28;20046;-63
2022/11/17 10:06:14;;;;;;;4.15;3.17;;;23.70;48.00;;;;;;5016423;28;20084;-67
2022/11/17 10:09:21;;;;;;;4.80;3.60;;;23.70;47.80;;;;;;5015133;28;21053;-65
2022/11/17 10:11:58;;;;;;;5.53;3.28;;;23.70;47.80;;;;;;4996358;28;20100;-64
2022/11/17 10:14:27;;;;;;;4.22;3.17;;;23.70;47.20;;;;;;5014209;28;20049;-64
2022/11/17 10:16:57;;;;;;;5.32;3.83;;;23.80;46.70;;;;;;5015654;28;20152;-63
2022/11/17 10:19:30;;;;;;;3.30;3.00;;;23.80;46.40;;;;;;4998319;28;20052;-65
2022/11/17 10:22:19;;;;;;;6.38;2.95;;;23.80;46.40;;;;;;5000028;28;20112;-62
2022/11/17 10:24:54;;;;;;;4.38;3.08;;;23.80;46.40;;;;;;5013057;28;20056;-66
2022/11/17 10:27:27;;;;;;;4.15;2.85;;;23.80;46.50;;;;;;5011550;28;20049;-63
2022/11/17 10:30:13;;;;;;;4.05;3.08;;;23.80;46.70;;;;;;4996924;28;20137;-62
2022/11/17 10:32:55;;;;;;;4.82;3.10;;;23.80;46.70;;;;;;5016695;28;20171;-59
2022/11/17 10:35:32;;;;;;;4.53;3.08;;;23.90;46.60;;;;;;5014951;28;20517;-63
2022/11/17 10:38:20;;;;;;;4.13;2.65;;;23.90;46.60;;;;;;4996596;28;20416;-64
2022/11/17 10:40:50;;;;;;;2.97;2.60;;;23.90;46.40;;;;;;5019119;28;20084;-63
2022/11/17 10:43:24;;;;;;;;;;;23.90;46.30;;;;;;5006895;28;20049;-63
2022/11/17 10:45:56;;;;;;;4.13;2.72;;;23.90;46.20;;;;;;5014870;28;19929;-65
2022/11/17 10:48:32;;;;;;;3.80;3.15;;;23.90;46.20;;;;;;5012131;28;20037;-64
2022/11/17 10:51:21;;;;;;;5.60;2.60;;;23.90;46.10;;;;;;5014648;28;20057;-64
2022/11/17 10:54:20;;;;;;;3.28;2.97;;;23.90;46.10;;;;;;5017667;28;20042;-64
2022/11/17 10:56:51;;;;;;;2.90;2.55;;;23.90;46.10;;;;;;5019094;28;20691;-62
2022/11/17 10:59:31;;;;;;;5.65;2.65;;;23.90;46.00;;;;;;5021621;28;20392;-64
2022/11/17 11:02:30;;;;;;;3.08;2.30;;;23.90;46.10;;;;;;5020957;28;20079;-62
2022/11/17 11:05:13;;;;;;;4.50;2.38;;;23.90;46.30;;;;;;5000758;28;20045;-66
2022/11/17 11:07:41;;;;;;;4.72;2.85;;;23.90;46.30;;;;;;4993545;28;20484;-66
2022/11/17 11:10:32;;;;;;;4.38;2.58;;;23.90;46.40;;;;;;5019104;28;20132;-64
2022/11/17 11:13:32;;;;;;;5.45;3.10;;;24.00;46.60;;;;;;5010840;28;20046;-65
2022/11/17 11:15:59;;;;;;;4.88;3.30;;;23.90;46.50;;;;;;5003006;28;20051;-64
2022/11/17 11:18:28;;;;;;;3.83;3.10;;;23.90;46.30;;;;;;5017923;28;20045;-64
2022/11/17 11:21:35;;;;;;;12.13;2.80;;;23.90;46.30;;;;;;5023670;28;20050;-64
2022/11/17 11:24:28;;;;;;;5.05;3.00;;;23.90;46.20;;;;;;5017285;28;20141;-61
2022/11/17 11:27:10;;;;;;;4.68;2.80;;;24.00;46.10;;;;;;5010659;28;20454;-62
2022/11/17 11:30:00;;;;;;;3.50;3.15;;;24.00;46.10;;;;;;5012839;28;20779;-62
2022/11/17 11:32:49;;;;;;;3.28;2.90;;;24.00;46.10;;;;;;5021565;28;20073;-62
2022/11/17 11:35:56;;;;;;;3.25;2.80;;;24.00;46.00;;;;;;5010164;28;20384;-65
2022/11/17 11:39:03;;;;;;;4.40;2.42;;;24.00;46.00;;;;;;5015867;28;20423;-67
2022/11/17 11:41:57;;;;;;;3.63;3.00;;;24.00;45.90;;;;;;5012498;28;20046;-65
2022/11/17 11:44:54;;;;;;;5.93;2.88;;;24.00;45.80;;;;;;5023301;28;20049;-71
2022/11/17 11:47:48;;;;;;;3.23;2.67;;;24.00;45.80;;;;;;5002866;28;20877;-69
2022/11/17 11:50:24;;;;;;;3.05;2.75;;;24.00;45.70;;;;;;4988002;28;20045;-68
2022/11/17 11:53:04;;;;;;;4.60;3.70;;;24.00;45.70;;;;;;5019859;28;20054;-65
2022/11/17 11:55:34;;;;;;;5.60;3.53;;;24.00;45.60;;;;;;5014648;28;20148;-63
2022/11/17 11:58:19;;;;;;;;;;;24.00;45.40;;;;;;5019109;28;20053;-62
2022/11/17 12:00:54;;;;;;;7.13;3.13;;;24.00;45.30;;;;;;5016167;28;20330;-64
2022/11/17 12:03:44;;;;;;;3.20;2.90;;;24.00;45.30;;;;;;5019776;28;20045;-74
2022/11/17 12:06:40;;;;;;;5.38;3.10;;;24.00;45.00;;;;;;5010654;28;20129;-63
2022/11/17 12:09:34;;;;;;;6.43;3.25;;;24.00;44.90;;;;;;5011069;28;20140;-65
2022/11/17 12:12:08;;;;;;;5.10;2.97;;;24.00;44.80;;;;;;5024210;28;20136;-64
2022/11/17 12:14:37;;;;;;;4.70;3.47;;;24.00;44.70;;;;;;5024336;28;20060;-64
2022/11/17 12:17:16;;;;;;;3.80;3.40;;;24.00;44.80;;;;;;5021341;28;20076;-64
2022/11/17 12:19:56;;;;;;;5.35;2.95;;;24.00;44.70;;;;;;5016277;28;20045;-63
2022/11/17 12:22:47;;;;;;;4.63;3.40;;;24.00;44.80;;;;;;5015797;28;20049;-64
2022/11/17 12:25:30;;;;;;;3.78;3.20;;;24.00;44.80;;;;;;5019242;28;20107;-64
2022/11/17 12:27:57;;;;;;;4.82;3.20;;;24.00;44.80;;;;;;5020667;28;20498;-62
2022/11/17 12:30:49;;;;;;;4.80;3.30;;;24.00;44.90;;;;;;5021020;28;20053;-61
2022/11/17 12:33:18;;;;;;;4.22;3.28;;;24.00;44.90;;;;;;5004557;28;20047;-62
2022/11/17 12:35:46;;;;;;;5.32;3.55;;;24.00;45.00;;;;;;5018223;28;20590;-63
2022/11/17 12:38:37;;;;;;;6.25;3.63;;;24.00;45.10;;;;;;5019364;28;20053;-63
2022/11/17 12:41:05;;;;;;;3.60;2.85;;;24.00;45.40;;;;;;5012735;28;20049;-63
2022/11/17 12:43:33;;;;;;;4.65;3.33;;;24.00;45.60;;;;;;5021398;28;20054;-62
2022/11/17 12:46:23;;;;;;;3.80;3.25;;;24.00;45.70;;;;;;5016276;28;20053;-62
2022/11/17 12:49:02;;;;;;;2.92;2.63;;;24.00;45.60;;;;;;5024768;28;20058;-66
2022/11/17 12:51:54;;;;;;;8.27;2.50;;;24.00;45.40;;;;;;5006029;28;20084;-64
2022/11/17 12:54:46;;;;;;;4.50;2.80;;;24.00;45.60;;;;;;5019242;28;20257;-64
2022/11/17 12:57:19;;;;;;;3.53;2.72;;;24.00;45.60;;;;;;5022723;28;20045;-63
2022/11/17 13:00:13;;;;;;;2.88;2.58;;;24.00;45.50;;;;;;5022157;28;20452;-63
2022/11/17 13:02:58;;;;;;;7.88;3.13;;;24.00;45.40;;;;;;5020569;28;20053;-62
2022/11/17 13:05:27;;;;;;;3.97;2.60;;;24.00;45.30;;;;;;5023118;28;20420;-65
2022/11/17 13:08:21;;;;;;;3.33;2.50;;;23.90;45.10;;;;;;5019681;28;20060;-63
2022/11/17 13:10:49;;;;;;;7.22;2.60;;;23.90;45.00;;;;;;5021269;28;20126;-63
2022/11/17 13:13:19;;;;;;;3.00;2.40;;;23.90;45.00;;;;;;5024222;28;20488;-63
2022/11/17 13:15:50;;;;;;;3.53;2.85;;;23.90;45.00;;;;;;5021730;28;20041;-63
2022/11/17 13:18:32;;;;;;;3.72;2.60;;;23.90;45.00;;;;;;5023415;28;20049;-63
2022/11/17 13:21:01;;;;;;;5.18;2.63;;;23.80;44.90;;;;;;5022584;28;20049;-63
2022/11/17 13:23:33;;;;;;;4.20;2.58;;;23.80;44.90;;;;;;5026374;28;20041;-64
2022/11/17 13:26:20;;;;;;;5.13;2.20;;;23.80;45.00;;;;;;4998583;28;21443;-64
2022/11/17 13:29:00;;;;;;;3.30;2.53;;;23.80;44.90;;;;;;5019286;28;20049;-64
2022/11/17 13:31:28;;;;;;;3.58;2.75;;;23.80;45.10;;;;;;5020257;28;20042;-63
2022/11/17 13:34:06;;;;;;;4.00;3.22;;;23.70;45.00;;;;;;5024443;28;20149;-65
2022/11/17 13:36:33;;;;;;;3.28;2.50;;;23.70;45.10;;;;;;5021371;28;20048;-65
2022/11/17 13:39:02;;;;;;;2.95;2.67;;;23.70;45.40;;;;;;5016688;28;20309;-66
2022/11/17 13:41:36;;;;;;;3.85;2.95;;;23.70;45.60;;;;;;5004686;28;20501;-67
2022/11/17 13:44:07;;;;;;;3.53;3.05;;;23.70;45.70;;;;;;5006635;28;20045;-65
2022/11/17 13:46:35;;;;;;;3.15;2.83;;;23.70;45.70;;;;;;5023559;28;20126;-67
2022/11/17 13:49:29;;;;;;;4.28;2.60;;;23.70;45.60;;;;;;5016365;28;20384;-65
2022/11/17 13:51:56;;;;;;;3.80;2.58;;;23.70;45.70;;;;;;5021795;28;20045;-66
2022/11/17 13:54:23;;;;;;;3.45;3.10;;;23.70;45.80;;;;;;5022924;28;20052;-64
2022/11/17 13:56:56;;;;;;;3.20;2.85;;;23.70;45.90;;;;;;5015646;28;20567;-65
2022/11/17 13:59:33;;;;;;;3.35;2.90;;;23.70;46.00;;;;;;5024396;28;20475;-65